Time;durP1;ratioP1;P1;durP2;ratioP2;P2;SDS_P1;SDS_P2;PMS_P1;PMS_P2;Temp;Humidity;BMP_temperature;BMP_pressure;BME280_temperature;BME280_humidity;BME280_pressure;Samples;Min_cycle;Max_cycle;Signal;HPM_P1;HPM_P2
2022/09/26 00:00:48;;;;;;;7.73;7.13;;;;;;;;;;12571100;28;20370;-79
2022/09/26 00:06:50;;;;;;;8.10;7.50;;;;;;;;;;12589077;28;20029;-79
2022/09/26 00:12:52;;;;;;;7.80;7.10;;;;;;;;;;12588951;28;20027;-80
2022/09/26 00:18:55;;;;;;;8.10;7.40;;;;;;;;;;12594834;28;20040;-81
2022/09/26 00:24:57;;;;;;;8.75;8.13;;;;;;;;;;12594372;28;20040;-81
2022/09/26 00:31:17;;;;;;;9.17;8.47;;;;;;;;;;12586676;28;20430;-80
2022/09/26 00:37:19;;;;;;;9.82;9.02;;;;;;;;;;12582752;28;20032;-83
2022/09/26 00:43:21;;;;;;;;;;;;;;;;;;12568720;28;20048;-79
2022/09/26 00:49:23;;;;;;;9.95;9.23;;;;;;;;;;12605162;28;19917;-80
2022/09/26 00:55:29;;;;;;;9.40;8.70;;;;;;;;;;12568239;28;20284;-79
2022/09/26 01:01:30;;;;;;;8.88;8.07;;;;;;;;;;12583704;28;20051;-79
2022/09/26 01:07:33;;;;;;;8.07;7.40;;;;;;;;;;12634354;28;20032;-79
2022/09/26 01:13:35;;;;;;;8.48;7.88;;;;;;;;;;12601380;28;20047;-79
2022/09/26 01:19:37;;;;;;;7.95;7.35;;;;;;;;;;12617326;28;20036;-79
2022/09/26 01:25:45;;;;;;;8.83;8.13;;;;;;;;;;12556428;28;20048;-79
2022/09/26 01:32:47;;;;;;;8.98;8.38;;;;;;;;;;12567482;28;20041;-77
2022/09/26 01:38:18;;;;;;;10.20;9.40;;;;;;;;;;12600681;28;20043;-78
2022/09/26 01:44:20;;;;;;;8.25;7.65;;;;;;;;;;12599049;28;20044;-79
2022/09/26 01:50:25;;;;;;;8.77;8.13;;;;;;;;;;12633849;28;20146;-79
2022/09/26 01:56:29;;;;;;;9.18;8.48;;;;;;;;;;12632461;28;20024;-77
2022/09/26 02:02:34;;;;;;;8.65;8.00;;;;;;;;;;12596100;28;20092;-78
2022/09/26 02:08:41;;;;;;;9.40;8.70;;;;;;;;;;12613635;28;20077;-78
2022/09/26 02:14:46;;;;;;;8.13;7.53;;;;;;;;;;12572825;28;20027;-78
2022/09/26 02:20:51;;;;;;;7.82;7.25;;;;;;;;;;12613308;28;20032;-78
2022/09/26 02:26:53;;;;;;;8.60;7.93;;;;;;;;;;12612950;28;20097;-78
2022/09/26 02:32:55;;;;;;;7.53;7.03;;;;;;;;;;12612588;28;20475;-78
2022/09/26 02:38:58;;;;;;;7.10;6.60;;;;;;;;;;12612373;28;20031;-79
2022/09/26 02:45:25;;;;;;;8.30;7.70;;;;;;;;;;12632856;28;20378;-78
2022/09/26 02:51:52;;;;;;;9.13;8.43;;;;;;;;;;12623246;28;20051;-79
2022/09/26 02:58:02;;;;;;;7.90;7.30;;;;;;;;;;12623320;28;20036;-78
2022/09/26 03:04:26;;;;;;;9.13;8.43;;;;;;;;;;12623087;28;20052;-79
2022/09/26 03:10:29;;;;;;;10.77;9.97;;;;;;;;;;12570891;28;20036;-77
2022/09/26 03:16:35;;;;;;;9.57;8.88;;;;;;;;;;12621645;28;20043;-78
2022/09/26 03:22:37;;;;;;;7.82;7.22;;;;;;;;;;12620255;28;20067;-78
2022/09/26 03:28:41;;;;;;;9.10;8.40;;;;;;;;;;12621186;28;20412;-78
2022/09/26 03:34:43;;;;;;;8.27;7.73;;;;;;;;;;12620533;28;20330;-78
2022/09/26 03:40:45;;;;;;;;;;;;;;;;;;12621136;28;20106;-79
2022/09/26 03:47:22;;;;;;;8.43;7.82;;;;;;;;;;12638702;28;19963;-79
2022/09/26 03:53:30;;;;;;;8.25;7.60;;;;;;;;;;12618242;28;20051;-79
2022/09/26 03:59:32;;;;;;;7.85;7.25;;;;;;;;;;12617719;28;20066;-79
2022/09/26 04:05:34;;;;;;;9.07;8.38;;;;;;;;;;12618142;28;20020;-79
2022/09/26 04:11:36;;;;;;;7.78;7.18;;;;;;;;;;12617700;28;20417;-77
2022/09/26 04:17:40;;;;;;;9.23;8.52;;;;;;;;;;12617257;28;20039;-79
2022/09/26 04:23:42;;;;;;;8.40;7.80;;;;;;;;;;12591615;28;20040;-79
2022/09/26 04:29:45;;;;;;;11.00;10.10;;;;;;;;;;12615688;28;20035;-78
2022/09/26 04:36:27;;;;;;;14.20;13.00;;;;;;;;;;12629165;28;20055;-78
2022/09/26 04:42:32;;;;;;;11.00;10.20;;;;;;;;;;12615262;28;20040;-79
2022/09/26 04:48:35;;;;;;;9.32;8.63;;;;;;;;;;12566254;28;1403228;-79
2022/09/26 04:54:45;;;;;;;8.82;8.13;;;;;;;;;;12616237;28;20035;-80
2022/09/26 05:00:48;;;;;;;8.37;7.77;;;;;;;;;;12617376;28;20061;-79
2022/09/26 05:07:15;;;;;;;9.00;8.30;;;;;;;;;;12618555;28;20039;-78
2022/09/26 05:13:17;;;;;;;8.20;7.40;;;;;;;;;;12616108;28;20028;-78
2022/09/26 05:19:20;;;;;;;9.73;9.03;;;;;;;;;;12614987;28;20766;-78
2022/09/26 05:32:05;;;;;;;7.80;7.28;;;;;;;;;;12617735;28;20326;-82
2022/09/26 05:38:11;;;;;;;9.27;8.57;;;;;;;;;;12601444;28;20040;-82
2022/09/26 05:44:16;;;;;;;9.90;9.10;;;;;;;;;;12618080;28;20044;-83
2022/09/26 05:50:21;;;;;;;8.57;7.97;;;;;;;;;;12600848;28;20052;-83
2022/09/26 05:56:24;;;;;;;9.93;9.02;;;;;;;;;;12601829;28;20032;-83
2022/09/26 06:02:56;;;;;;;13.85;10.60;;;;;;;;;;12587763;28;20165;-85
2022/09/26 06:09:06;;;;;;;9.90;9.15;;;;;;;;;;12601534;28;20051;-84
2022/09/26 06:15:20;;;;;;;10.07;9.27;;;;;;;;;;12634244;28;20087;-84
2022/09/26 06:21:22;;;;;;;18.73;17.13;;;;;;;;;;12615311;28;20099;-81
2022/09/26 06:27:37;;;;;;;14.98;13.52;;;;;;;;;;12598152;28;20055;-81
2022/09/26 06:33:40;;;;;;;15.95;14.75;;;;;;;;;;12613511;28;20036;-81
2022/09/26 06:39:55;;;;;;;11.88;11.05;;;;;;;;;;12595015;28;20040;-81
2022/09/26 06:45:57;;;;;;;8.70;8.00;;;;;;;;;;12612037;28;20039;-81
2022/09/26 06:52:11;;;;;;;7.50;6.82;;;;;;;;;;12609798;28;20048;-82
2022/09/26 06:58:13;;;;;;;6.53;6.13;;;;;;;;;;12613342;28;20454;-82
2022/09/26 07:04:28;;;;;;;6.75;6.35;;;;;;;;;;12597197;28;20044;-80
2022/09/26 07:10:40;;;;;;;7.28;6.78;;;;;;;;;;12611989;28;20293;-80
2022/09/26 07:16:50;;;;;;;10.68;9.88;;;;;;;;;;12612695;28;20495;-81
2022/09/26 07:23:15;;;;;;;8.40;7.80;;;;;;;;;;12614265;28;20087;-80
2022/09/26 07:29:18;;;;;;;8.05;7.45;;;;;;;;;;12594115;28;20054;-80
2022/09/26 07:35:20;;;;;;;10.70;9.80;;;;;;;;;;12591592;28;20032;-80
2022/09/26 07:41:22;;;;;;;11.37;10.43;;;;;;;;;;12519357;28;20063;-80
2022/09/26 07:54:05;;;;;;;14.00;12.80;;;;;;;;;;12588150;28;20048;-79
2022/09/26 08:00:43;;;;;;;18.25;16.70;;;;;;;;;;12575579;28;20044;-78
2022/09/26 08:06:55;;;;;;;;;;;;;;;;;;12570380;28;20095;-78
2022/09/26 08:13:00;;;;;;;15.80;14.30;;;;;;;;;;12568824;28;19912;-78
2022/09/26 08:19:21;;;;;;;19.60;17.90;;;;;;;;;;12585049;28;20040;-78
2022/09/26 08:25:23;;;;;;;19.80;18.08;;;;;;;;;;12565919;28;20397;-78
2022/09/26 08:31:36;;;;;;;;;;;;;;;;;;12566583;28;20051;-78
2022/09/26 08:37:39;;;;;;;18.60;16.95;;;;;;;;;;12549751;28;19915;-78
2022/09/26 08:44:22;;;;;;;11.45;10.48;;;;;;;;;;12581429;28;20037;-78
2022/09/26 08:51:23;;;;;;;16.30;14.90;;;;;;;;;;12543104;28;20463;-78
2022/09/26 08:57:33;;;;;;;16.92;15.48;;;;;;;;;;12564754;28;20044;-78
2022/09/26 09:03:47;;;;;;;16.60;15.05;;;;;;;;;;12564134;28;20063;-78
2022/09/26 09:09:51;;;;;;;15.75;14.35;;;;;;;;;;12582420;28;20020;-78
2022/09/26 09:16:36;;;;;;;12.70;11.60;;;;;;;;;;12560386;28;20459;-78
2022/09/26 09:22:45;;;;;;;23.42;21.48;;;;;;;;;;12555048;28;20536;-78
2022/09/26 09:29:11;;;;;;;13.50;12.30;;;;;;;;;;12564205;28;20048;-78
2022/09/26 09:35:19;;;;;;;19.83;17.95;;;;;;;;;;12564929;28;20036;-78
2022/09/26 09:41:47;;;;;;;12.88;11.80;;;;;;;;;;12563672;28;20040;-78
2022/09/26 09:47:51;;;;;;;19.38;17.67;;;;;;;;;;12563136;28;20055;-78
2022/09/26 09:54:11;;;;;;;15.07;13.77;;;;;;;;;;12562896;28;20063;-78
2022/09/26 10:00:21;;;;;;;11.00;10.10;;;;;;;;;;12563157;28;20470;-78
2022/09/26 10:06:36;;;;;;;11.00;10.10;;;;;;;;;;12563649;28;20036;-79
2022/09/26 10:12:40;;;;;;;13.43;12.35;;;;;;;;;;12562655;28;20036;-79
2022/09/26 10:19:06;;;;;;;11.25;10.32;;;;;;;;;;12550523;28;20047;-78
2022/09/26 10:25:16;;;;;;;9.40;8.60;;;;;;;;;;12561292;28;20509;-78
2022/09/26 10:31:29;;;;;;;8.18;7.57;;;;;;;;;;12561862;28;20044;-79
2022/09/26 10:38:04;;;;;;;8.88;8.18;;;;;;;;;;12561130;28;20097;-77
2022/09/26 10:44:20;;;;;;;9.02;8.32;;;;;;;;;;12561369;28;20067;-78
2022/09/26 10:50:47;;;;;;;8.82;8.13;;;;;;;;;;12573281;28;20064;-78
2022/09/26 10:57:17;;;;;;;7.47;6.90;;;;;;;;;;12559045;28;20041;-78
2022/09/26 11:03:20;;;;;;;10.93;10.02;;;;;;;;;;12560564;28;20107;-78
2022/09/26 11:09:40;;;;;;;9.43;8.63;;;;;;;;;;12584781;28;20039;-78
2022/09/26 11:16:09;;;;;;;10.25;9.45;;;;;;;;;;12586874;28;20040;-78
2022/09/26 11:22:28;;;;;;;7.80;7.20;;;;;;;;;;12565128;28;20052;-78
2022/09/26 11:28:35;;;;;;;7.60;7.00;;;;;;;;;;12570262;28;20033;-77
2022/09/26 11:35:00;;;;;;;11.57;10.57;;;;;;;;;;12570346;28;20047;-77
2022/09/26 11:41:35;;;;;;;7.35;6.72;;;;;;;;;;12586584;28;20048;-78
2022/09/26 11:47:45;;;;;;;10.18;9.38;;;;;;;;;;12568984;28;20071;-77
2022/09/26 11:54:13;;;;;;;6.78;6.28;;;;;;;;;;12590355;28;20043;-77
2022/09/26 12:00:30;;;;;;;5.80;5.38;;;;;;;;;;12618099;28;20036;-77
2022/09/26 12:06:35;;;;;;;5.80;5.40;;;;;;;;;;12635750;28;20047;-77
2022/09/26 12:12:42;;;;;;;6.15;5.68;;;;;;;;;;12618458;28;20028;-78
2022/09/26 12:18:49;;;;;;;12.93;11.80;;;;;;;;;;12637307;28;20325;-77
2022/09/26 12:24:54;;;;;;;6.93;6.43;;;;;;;;;;12635281;28;20036;-78
2022/09/26 12:31:11;;;;;;;5.80;5.35;;;;;;;;;;12635994;28;20035;-78
2022/09/26 12:37:13;;;;;;;5.05;4.68;;;;;;;;;;12633200;28;20028;-78
2022/09/26 12:43:15;;;;;;;;;;;;;;;;;;12635133;28;20107;-78
2022/09/26 12:49:21;;;;;;;4.88;4.47;;;;;;;;;;12615777;28;20074;-78
2022/09/26 12:55:28;;;;;;;4.50;4.20;;;;;;;;;;12634589;28;20071;-78
2022/09/26 13:01:58;;;;;;;5.35;4.95;;;;;;;;;;12615445;28;20040;-78
2022/09/26 13:08:15;;;;;;;5.90;5.43;;;;;;;;;;12586221;28;20044;-79
2022/09/26 13:14:26;;;;;;;6.15;5.70;;;;;;;;;;12634389;28;20477;-79
2022/09/26 13:20:42;;;;;;;6.18;5.68;;;;;;;;;;12634124;28;20051;-79
2022/09/26 13:26:48;;;;;;;6.97;6.38;;;;;;;;;;12616048;28;20036;-78
2022/09/26 13:32:54;;;;;;;6.65;5.93;;;;;;;;;;12628945;28;20055;-79
2022/09/26 13:39:06;;;;;;;5.78;5.38;;;;;;;;;;12614284;28;20032;-79
2022/09/26 13:45:25;;;;;;;4.28;3.97;;;;;;;;;;12632630;28;20448;-78
2022/09/26 13:51:33;;;;;;;4.93;4.53;;;;;;;;;;12631814;28;20063;-78
2022/09/26 13:57:35;;;;;;;5.45;5.05;;;;;;;;;;12632170;28;20047;-79
2022/09/26 14:03:38;;;;;;;4.80;4.40;;;;;;;;;;12633164;28;20036;-79
2022/09/26 14:09:41;;;;;;;4.80;4.40;;;;;;;;;;12614170;28;20035;-79
2022/09/26 14:15:46;;;;;;;2.88;2.67;;;;;;;;;;12632801;28;20472;-80
2022/09/26 14:21:57;;;;;;;3.85;3.55;;;;;;;;;;12605739;28;20120;-80
2022/09/26 14:28:08;;;;;;;3.72;3.53;;;;;;;;;;12595180;28;20499;-80
2022/09/26 14:34:10;;;;;;;3.22;3.03;;;;;;;;;;12612416;28;20051;-79
2022/09/26 14:40:12;;;;;;;4.20;3.80;;;;;;;;;;12613755;28;20036;-79
2022/09/26 14:46:16;;;;;;;4.10;3.80;;;;;;;;;;12635272;28;20384;-78
2022/09/26 14:52:19;;;;;;;4.13;3.83;;;;;;;;;;12635835;28;20488;-79
2022/09/26 14:58:32;;;;;;;3.13;2.92;;;;;;;;;;12638722;28;20434;-80
2022/09/26 15:04:34;;;;;;;3.00;2.80;;;;;;;;;;12638855;28;20052;-79
2022/09/26 15:10:35;;;;;;;;;;;;;;;;;;12621219;28;20036;-80
2022/09/26 15:16:41;;;;;;;3.13;2.83;;;;;;;;;;12639138;28;20281;-79
2022/09/26 15:22:43;;;;;;;3.65;3.45;;;;;;;;;;12620154;28;20048;-79
2022/09/26 15:28:47;;;;;;;2.50;2.30;;;;;;;;;;12620175;28;20032;-79
2022/09/26 15:34:50;;;;;;;2.92;2.72;;;;;;;;;;12638528;28;20357;-79
2022/09/26 15:40:59;;;;;;;2.63;2.42;;;;;;;;;;12619457;28;20051;-79
2022/09/26 15:47:37;;;;;;;2.60;2.40;;;;;;;;;;12602702;28;20028;-80
2022/09/26 15:53:39;;;;;;;2.70;2.50;;;;;;;;;;12520794;28;20496;-80
2022/09/26 15:59:43;;;;;;;3.40;3.20;;;;;;;;;;12618258;28;20036;-80
2022/09/26 16:05:47;;;;;;;3.10;2.90;;;;;;;;;;12618112;28;20048;-79
2022/09/26 16:11:53;;;;;;;2.38;2.28;;;;;;;;;;12636728;28;20034;-79
2022/09/26 16:17:57;;;;;;;2.63;2.42;;;;;;;;;;12637099;28;20055;-79
2022/09/26 16:24:01;;;;;;;3.10;2.90;;;;;;;;;;12636567;28;20051;-79
2022/09/26 16:30:25;;;;;;;3.20;3.00;;;;;;;;;;12617929;28;20027;-79
2022/09/26 16:36:49;;;;;;;3.70;3.40;;;;;;;;;;12620562;28;20032;-79
2022/09/26 16:42:53;;;;;;;3.00;2.80;;;;;;;;;;12635396;28;20035;-78
2022/09/26 16:48:58;;;;;;;2.90;2.70;;;;;;;;;;12600883;28;20074;-79
2022/09/26 16:55:01;;;;;;;2.60;2.40;;;;;;;;;;12617285;28;20036;-81
2022/09/26 17:07:25;;;;;;;3.47;3.17;;;;;;;;;;12616432;28;20028;-79
2022/09/26 17:13:31;;;;;;;3.13;2.85;;;;;;;;;;12616024;28;20430;-80
2022/09/26 17:19:38;;;;;;;3.30;2.90;;;;;;;;;;12636849;28;20051;-80
2022/09/26 17:25:41;;;;;;;3.40;3.13;;;;;;;;;;12616526;28;20055;-79
2022/09/26 17:31:43;;;;;;;4.00;3.70;;;;;;;;;;12617028;28;20421;-80
2022/09/26 17:37:55;;;;;;;4.10;3.80;;;;;;;;;;12619355;28;20035;-80
2022/09/26 17:43:59;;;;;;;;;;;;;;;;;;12617271;28;20564;-79
2022/09/26 17:50:01;;;;;;;4.38;3.85;;;;;;;;;;12635901;28;19931;-80
2022/09/26 17:56:06;;;;;;;5.43;4.93;;;;;;;;;;12616825;28;20115;-80
2022/09/26 18:02:29;;;;;;;5.65;4.72;;;;;;;;;;12633292;28;20476;-79
2022/09/26 18:08:37;;;;;;;5.10;4.68;;;;;;;;;;12600049;28;20413;-80
2022/09/26 18:14:41;;;;;;;6.10;5.60;;;;;;;;;;12634595;28;20080;-80
2022/09/26 18:20:44;;;;;;;7.68;6.70;;;;;;;;;;12634374;28;20494;-80
2022/09/26 18:26:49;;;;;;;6.03;5.53;;;;;;;;;;12614511;28;20031;-80
2022/09/26 18:32:53;;;;;;;5.50;5.00;;;;;;;;;;12599327;28;20040;-79
2022/09/26 18:38:56;;;;;;;6.07;5.57;;;;;;;;;;12632874;28;20504;-79
2022/09/26 18:45:02;;;;;;;4.97;4.57;;;;;;;;;;12634633;28;20150;-80
2022/09/26 18:51:05;;;;;;;4.60;4.25;;;;;;;;;;12616130;28;20058;-79
2022/09/26 19:03:30;;;;;;;;;;;;;;;;;;12630414;28;20052;-80
2022/09/26 19:09:33;;;;;;;;;;;;;;;;;;12618463;28;19912;-80
2022/09/26 19:15:35;;;;;;;;;;;;;;;;;;12617581;28;19908;-79
2022/09/26 19:21:37;;;;;;;;;;;;;;;;;;12634044;28;19915;-80
2022/09/26 19:27:41;;;;;;;;;;;;;;;;;;12637147;28;19926;-80
2022/09/26 19:33:43;;;;;;;;;;;;;;;;;;12623023;28;19935;-80
2022/09/26 19:39:45;;;;;;;;;;;;;;;;;;12622185;28;19908;-79
2022/09/26 19:45:50;;;;;;;;;;;;;;;;;;12637819;28;20400;-80
2022/09/26 19:51:52;;;;;;;;;;;;;;;;;;12596682;28;19924;-79
2022/09/26 19:57:55;;;;;;;;;;;;;;;;;;12638083;28;19915;-79
2022/09/26 20:03:56;;;;;;;;;;;;;;;;;;12636857;28;19927;-79
2022/09/26 20:10:02;;;;;;;;;;;;;;;;;;12637731;28;20365;-80
2022/09/26 20:16:04;;;;;;;;;;;;;;;;;;12615013;28;20006;-79
2022/09/26 20:22:06;;;;;;;;;;;;;;;;;;12597686;28;20333;-79
2022/09/26 20:28:08;;;;;;;;;;;;;;;;;;12618865;28;19908;-80
2022/09/26 20:34:11;;;;;;;;;;;;;;;;;;12601322;28;19956;-80
2022/09/26 20:40:15;;;;;;;;;;;;;;;;;;12601231;28;19912;-80
2022/09/26 20:46:17;;;;;;;;;;;;;;;;;;12612418;28;19916;-79
2022/09/26 20:52:19;;;;;;;;;;;;;;;;;;12633463;28;19934;-80
2022/09/26 20:58:21;;;;;;;;;;;;;;;;;;12636976;28;19908;-80
2022/09/26 21:04:24;;;;;;;;;;;;;;;;;;12619412;28;19916;-79
2022/09/26 21:10:27;;;;;;;;;;;;;;;;;;12638329;28;20279;-79
2022/09/26 21:16:29;;;;;;;;;;;;;;;;;;12595987;28;19919;-79
2022/09/26 21:22:32;;;;;;;;;;;;;;;;;;12635387;28;19940;-79
2022/09/26 21:28:35;;;;;;;;;;;;;;;;;;12619224;28;19908;-79
2022/09/26 21:34:37;;;;;;;;;;;;;;;;;;12638232;28;19923;-79
2022/09/26 21:40:39;;;;;;;;;;;;;;;;;;12636859;28;19930;-79
2022/09/26 21:46:42;;;;;;;;;;;;;;;;;;12618169;28;19995;-79
2022/09/26 21:52:44;;;;;;;;;;;;;;;;;;12617869;28;19928;-79
2022/09/26 21:58:50;;;;;;;;;;;;;;;;;;12619232;28;19930;-80
2022/09/26 22:04:52;;;;;;;;;;;;;;;;;;12603535;28;20002;-79
2022/09/26 22:10:54;;;;;;;;;;;;;;;;;;12603113;28;19908;-80
2022/09/26 22:16:56;;;;;;;;;;;;;;;;;;12637545;28;19994;-79
2022/09/26 22:22:58;;;;;;;;;;;;;;;;;;12603196;28;20387;-79
2022/09/26 22:28:59;;;;;;;;;;;;;;;;;;12601584;28;19931;-79
2022/09/26 22:35:01;;;;;;;;;;;;;;;;;;12633898;28;19935;-79
2022/09/26 22:41:02;;;;;;;;;;;;;;;;;;12616029;28;19916;-79
2022/09/26 22:47:04;;;;;;;;;;;;;;;;;;12616351;28;19908;-79
2022/09/26 22:53:05;;;;;;;;;;;;;;;;;;12617115;28;19912;-79
2022/09/26 22:59:07;;;;;;;;;;;;;;;;;;12616187;28;20284;-80
2022/09/26 23:05:08;;;;;;;;;;;;;;;;;;12624351;28;19916;-79
2022/09/26 23:11:10;;;;;;;;;;;;;;;;;;12626611;28;20383;-80
2022/09/26 23:17:12;;;;;;;;;;;;;;;;;;12648602;28;19908;-80
2022/09/26 23:23:13;;;;;;;;;;;;;;;;;;12648734;28;20584;-79
2022/09/26 23:29:15;;;;;;;;;;;;;;;;;;12647046;28;20348;-79
2022/09/26 23:35:16;;;;;;;;;;;;;;;;;;12626241;28;19915;-79
2022/09/26 23:41:18;;;;;;;;;;;;;;;;;;12643129;28;19917;-80
2022/09/26 23:47:19;;;;;;;;;;;;;;;;;;12624212;28;20384;-80
2022/09/26 23:53:21;;;;;;;;;;;;;;;;;;12624857;28;19912;-79
2022/09/26 23:59:23;;;;;;;;;;;;;;;;;;12643866;28;20181;-80
